Country
Station

 

Weather  for  Nordholz  -  Germany    Germany

  
18 °C (64 °F)
    
 
 

Current METAR for Nordholz is :

ETMN 192120Z 13007KT 9999 FEW320 18/09 Q1026 BLU+

 

This is a report for Nordholz - Germany.
 
The report was made 10 minutes ago, at 21:20 UTC .
The wind was blowing at a speed of 3.6 meters per second (8.1 miles per hour) from southeast (130°).
 
The temperature was 18 °C (64 °F), with a dew-point at 9 °C (48 °F).
The atmospheric pressure was 1026 hPa (30.30 inHg).
The relative humidity was 55.6%.
 
There were a few clouds at a height of 9754 meters (32000 feet).
 
The overall visibility was greater than 10 kilometers (6.2 miles).
 

 
 
 
 

Country :   A   B   C   D   E   F   G   H   I   J   K   L   M   N   O   P   Q   R   S   T   U   V   W   Y   Z

 

Site Info  |  Disclaimer  |  Credits  |  Privacy
Contact us  |  Add to favorites
© 2013-2018 METARs - All rights reserved